JA96KM RPVZ-RPVB
Flight info
| Callsign | JA96KM |
|---|---|
| Flight time | 0h 55m |
| Altitude | 4500 |
| Route | VFR |
| Aircraft | DA40/L-SDFGRY/LB1 |
Departure
| Time | 2026-05-07 04:58 |
|---|---|
| Airport | Siquijor Airport (RPVZ) |
Arrival
| Time | 2026-05-07 05:54 |
|---|---|
| Airport | Bacolod-Silay International Airport (RPVB) |
| Time | Latitude | Longitude | Altitude | Speed | Heading |
|---|---|---|---|---|---|
| 2026-05-07 04:44 | 9.21288 | 123.47234 | 26 ft | 0 kts | 42° |
| 2026-05-07 04:54 | 9.21288 | 123.47235 | 29 ft | 1 kts | 42° |
| 2026-05-07 04:54 | 9.21301 | 123.47235 | 27 ft | 2 kts | 321° |
| 2026-05-07 04:54 | 9.21329 | 123.47219 | 27 ft | 7 kts | 327° |
| 2026-05-07 04:54 | 9.21345 | 123.47171 | 28 ft | 9 kts | 224° |
| 2026-05-07 04:55 | 9.21284 | 123.47117 | 28 ft | 15 kts | 223° |
| 2026-05-07 04:55 | 9.21199 | 123.47036 | 27 ft | 18 kts | 225° |
| 2026-05-07 04:55 | 9.21101 | 123.46941 | 27 ft | 21 kts | 222° |
| 2026-05-07 04:55 | 9.20991 | 123.46834 | 23 ft | 23 kts | 223° |
| 2026-05-07 04:56 | 9.20876 | 123.46724 | 23 ft | 22 kts | 226° |
| 2026-05-07 04:56 | 9.20767 | 123.46619 | 22 ft | 21 kts | 222° |
| 2026-05-07 04:56 | 9.20674 | 123.46543 | 24 ft | 13 kts | 223° |
| 2026-05-07 04:56 | 9.20681 | 123.46529 | 24 ft | 2 kts | 68° |
| 2026-05-07 04:57 | 9.20714 | 123.46567 | 23 ft | 20 kts | 41° |
| 2026-05-07 04:57 | 9.20934 | 123.46779 | 23 ft | 65 kts | 43° |
| 2026-05-07 04:57 | 9.21272 | 123.47144 | 167 ft | 76 kts | 39° |
| 2026-05-07 04:57 | 9.21682 | 123.47538 | 331 ft | 83 kts | 35° |
| 2026-05-07 04:58 | 9.22136 | 123.47877 | 471 ft | 85 kts | 17° |
| 2026-05-07 04:58 | 9.22754 | 123.47884 | 572 ft | 91 kts | 341° |
| 2026-05-07 04:58 | 9.23198 | 123.47408 | 659 ft | 104 kts | 296° |
| 2026-05-07 04:58 | 9.23453 | 123.46704 | 730 ft | 106 kts | 295° |
| 2026-05-07 04:59 | 9.23664 | 123.46010 | 835 ft | 103 kts | 293° |
| 2026-05-07 04:59 | 9.23907 | 123.45335 | 943 ft | 102 kts | 291° |
| 2026-05-07 04:59 | 9.24136 | 123.44651 | 1018 ft | 102 kts | 292° |
| 2026-05-07 04:59 | 9.24350 | 123.43951 | 1041 ft | 105 kts | 291° |
| 2026-05-07 05:00 | 9.24568 | 123.43264 | 1136 ft | 103 kts | 291° |
| 2026-05-07 05:00 | 9.24829 | 123.42580 | 1225 ft | 108 kts | 298° |
| 2026-05-07 05:00 | 9.25080 | 123.41863 | 1367 ft | 109 kts | 294° |
| 2026-05-07 05:00 | 9.25325 | 123.41115 | 1520 ft | 118 kts | 291° |
| 2026-05-07 05:01 | 9.25594 | 123.40263 | 1659 ft | 135 kts | 294° |
| 2026-05-07 05:01 | 9.25885 | 123.39317 | 1882 ft | 145 kts | 290° |
| 2026-05-07 05:01 | 9.26127 | 123.38278 | 1833 ft | 154 kts | 291° |
| 2026-05-07 05:01 | 9.26428 | 123.37260 | 1768 ft | 149 kts | 294° |
| 2026-05-07 05:02 | 9.26826 | 123.36261 | 1549 ft | 152 kts | 299° |
| 2026-05-07 05:02 | 9.27224 | 123.35346 | 1538 ft | 133 kts | 298° |
| 2026-05-07 05:02 | 9.27600 | 123.34527 | 1511 ft | 128 kts | 299° |
| 2026-05-07 05:02 | 9.27972 | 123.33706 | 1529 ft | 127 kts | 297° |
| 2026-05-07 05:03 | 9.28386 | 123.32891 | 1590 ft | 136 kts | 299° |
| 2026-05-07 05:03 | 9.28844 | 123.32014 | 1696 ft | 149 kts | 302° |
| 2026-05-07 05:03 | 9.29436 | 123.31138 | 1581 ft | 155 kts | 327° |
| 2026-05-07 05:03 | 9.30427 | 123.30811 | 1525 ft | 143 kts | 352° |
| 2026-05-07 05:04 | 9.31396 | 123.30626 | 1499 ft | 137 kts | 354° |
| 2026-05-07 05:04 | 9.32320 | 123.30518 | 1499 ft | 131 kts | 355° |
| 2026-05-07 05:04 | 9.33211 | 123.30365 | 1436 ft | 131 kts | 345° |
| 2026-05-07 05:04 | 9.34037 | 123.29992 | 1386 ft | 128 kts | 334° |
| 2026-05-07 05:05 | 9.34819 | 123.29594 | 1220 ft | 128 kts | 340° |
| 2026-05-07 05:05 | 9.35531 | 123.29178 | 1276 ft | 113 kts | 326° |
| 2026-05-07 05:05 | 9.36153 | 123.28695 | 1255 ft | 111 kts | 322° |
| 2026-05-07 05:05 | 9.36720 | 123.28214 | 1282 ft | 105 kts | 323° |
| 2026-05-07 05:06 | 9.37301 | 123.27754 | 1264 ft | 107 kts | 327° |
| 2026-05-07 05:06 | 9.37909 | 123.27294 | 1303 ft | 108 kts | 327° |
| 2026-05-07 05:06 | 9.38489 | 123.26842 | 1284 ft | 103 kts | 326° |
| 2026-05-07 05:06 | 9.39073 | 123.26431 | 1254 ft | 103 kts | 326° |
| 2026-05-07 05:07 | 9.39666 | 123.26018 | 1227 ft | 103 kts | 328° |
| 2026-05-07 05:07 | 9.40306 | 123.25668 | 1245 ft | 105 kts | 334° |
| 2026-05-07 05:07 | 9.40949 | 123.25310 | 1319 ft | 106 kts | 333° |
| 2026-05-07 05:07 | 9.41609 | 123.24940 | 1372 ft | 109 kts | 334° |
| 2026-05-07 05:08 | 9.42269 | 123.24589 | 1484 ft | 105 kts | 332° |
| 2026-05-07 05:08 | 9.42809 | 123.24069 | 1566 ft | 109 kts | 314° |
| 2026-05-07 05:08 | 9.43302 | 123.23478 | 1800 ft | 110 kts | 314° |
| 2026-05-07 05:08 | 9.43786 | 123.22862 | 2120 ft | 114 kts | 316° |
| 2026-05-07 05:09 | 9.44332 | 123.22218 | 2285 ft | 126 kts | 317° |
| 2026-05-07 05:09 | 9.44943 | 123.21554 | 2455 ft | 132 kts | 318° |
| 2026-05-07 05:09 | 9.45602 | 123.20839 | 2586 ft | 146 kts | 316° |
| 2026-05-07 05:09 | 9.46271 | 123.20023 | 2821 ft | 153 kts | 316° |
| 2026-05-07 05:10 | 9.46961 | 123.19198 | 3050 ft | 151 kts | 322° |
| 2026-05-07 05:10 | 9.47762 | 123.18594 | 3265 ft | 140 kts | 338° |
| 2026-05-07 05:10 | 9.48638 | 123.18176 | 3241 ft | 137 kts | 342° |
| 2026-05-07 05:10 | 9.49501 | 123.17817 | 3240 ft | 133 kts | 344° |
| 2026-05-07 05:11 | 9.50365 | 123.17489 | 3205 ft | 131 kts | 346° |
| 2026-05-07 05:11 | 9.51205 | 123.17199 | 3271 ft | 124 kts | 348° |
| 2026-05-07 05:11 | 9.52024 | 123.16937 | 3318 ft | 122 kts | 351° |
| 2026-05-07 05:11 | 9.52831 | 123.16673 | 3391 ft | 121 kts | 349° |
| 2026-05-07 05:12 | 9.53633 | 123.16406 | 3451 ft | 122 kts | 350° |
| 2026-05-07 05:12 | 9.54447 | 123.16137 | 3491 ft | 124 kts | 348° |
| 2026-05-07 05:12 | 9.55236 | 123.15806 | 3588 ft | 121 kts | 345° |
| 2026-05-07 05:12 | 9.56015 | 123.15473 | 3665 ft | 120 kts | 348° |
| 2026-05-07 05:13 | 9.56790 | 123.15161 | 3711 ft | 122 kts | 345° |
| 2026-05-07 05:13 | 9.57557 | 123.14769 | 3765 ft | 129 kts | 330° |
| 2026-05-07 05:13 | 9.58087 | 123.14030 | 3884 ft | 131 kts | 299° |
| 2026-05-07 05:13 | 9.58374 | 123.13147 | 3963 ft | 132 kts | 290° |
| 2026-05-07 05:14 | 9.58619 | 123.12254 | 4062 ft | 132 kts | 290° |
| 2026-05-07 05:14 | 9.58856 | 123.11352 | 4156 ft | 133 kts | 290° |
| 2026-05-07 05:14 | 9.59083 | 123.10435 | 4253 ft | 135 kts | 290° |
| 2026-05-07 05:14 | 9.59309 | 123.09509 | 4351 ft | 136 kts | 289° |
| 2026-05-07 05:15 | 9.59539 | 123.08581 | 4451 ft | 135 kts | 289° |
| 2026-05-07 05:15 | 9.59775 | 123.07646 | 4502 ft | 141 kts | 290° |
| 2026-05-07 05:15 | 9.60021 | 123.06650 | 4497 ft | 147 kts | 290° |
| 2026-05-07 05:15 | 9.60265 | 123.05645 | 4502 ft | 148 kts | 290° |
| 2026-05-07 05:16 | 9.60512 | 123.04621 | 4506 ft | 151 kts | 291° |
| 2026-05-07 05:16 | 9.60766 | 123.03565 | 4494 ft | 156 kts | 290° |
| 2026-05-07 05:16 | 9.61045 | 123.02498 | 4492 ft | 157 kts | 290° |
| 2026-05-07 05:16 | 9.61320 | 123.01440 | 4489 ft | 157 kts | 290° |
| 2026-05-07 05:17 | 9.61596 | 123.00373 | 4485 ft | 156 kts | 290° |
| 2026-05-07 05:17 | 9.61870 | 122.99343 | 4500 ft | 149 kts | 290° |
| 2026-05-07 05:17 | 9.62139 | 122.98327 | 4501 ft | 150 kts | 290° |
| 2026-05-07 05:17 | 9.62411 | 122.97301 | 4500 ft | 153 kts | 290° |
| 2026-05-07 05:18 | 9.62691 | 122.96240 | 4491 ft | 157 kts | 290° |
| 2026-05-07 05:18 | 9.62977 | 122.95177 | 4489 ft | 153 kts | 290° |
| 2026-05-07 05:18 | 9.63252 | 122.94152 | 4498 ft | 149 kts | 290° |
| 2026-05-07 05:18 | 9.63524 | 122.93148 | 4500 ft | 147 kts | 290° |
| 2026-05-07 05:19 | 9.63806 | 122.92158 | 4502 ft | 145 kts | 294° |
| 2026-05-07 05:19 | 9.64163 | 122.91217 | 4502 ft | 142 kts | 298° |
| 2026-05-07 05:19 | 9.64581 | 122.90321 | 4494 ft | 138 kts | 308° |
| 2026-05-07 05:19 | 9.65217 | 122.89649 | 4426 ft | 130 kts | 342° |
| 2026-05-07 05:20 | 9.66079 | 122.89551 | 4356 ft | 125 kts | 12° |
| 2026-05-07 05:20 | 9.66948 | 122.89643 | 4283 ft | 127 kts | 14° |
| 2026-05-07 05:20 | 9.67832 | 122.89720 | 4208 ft | 128 kts | 12° |
| 2026-05-07 05:20 | 9.68720 | 122.89779 | 4136 ft | 128 kts | 13° |
| 2026-05-07 05:21 | 9.69607 | 122.89832 | 4069 ft | 128 kts | 10° |
| 2026-05-07 05:21 | 9.71388 | 122.89932 | 3924 ft | 128 kts | 10° |
| 2026-05-07 05:21 | 9.72278 | 122.89980 | 3850 ft | 128 kts | 9° |
| 2026-05-07 05:22 | 9.73180 | 122.89936 | 3778 ft | 131 kts | 1° |
| 2026-05-07 05:22 | 9.74086 | 122.89830 | 3700 ft | 132 kts | 1° |
| 2026-05-07 05:22 | 9.74976 | 122.89707 | 3701 ft | 127 kts | 1° |
| 2026-05-07 05:22 | 9.75825 | 122.89574 | 3707 ft | 124 kts | 359° |
| 2026-05-07 05:23 | 9.76677 | 122.89465 | 3708 ft | 124 kts | 2° |
| 2026-05-07 05:23 | 9.77538 | 122.89347 | 3706 ft | 125 kts | 0° |
| 2026-05-07 05:23 | 9.78414 | 122.89251 | 3704 ft | 128 kts | 1° |
| 2026-05-07 05:23 | 9.79302 | 122.89157 | 3701 ft | 128 kts | 2° |
| 2026-05-07 05:24 | 9.80181 | 122.89040 | 3705 ft | 127 kts | 0° |
| 2026-05-07 05:24 | 9.81046 | 122.88935 | 3708 ft | 124 kts | 3° |
| 2026-05-07 05:24 | 9.81904 | 122.88862 | 3708 ft | 124 kts | 3° |
| 2026-05-07 05:24 | 9.82777 | 122.88811 | 3700 ft | 126 kts | 3° |
| 2026-05-07 05:25 | 9.83644 | 122.88751 | 3702 ft | 123 kts | 4° |
| 2026-05-07 05:25 | 9.84492 | 122.88708 | 3699 ft | 121 kts | 4° |
| 2026-05-07 05:25 | 9.85329 | 122.88689 | 3702 ft | 119 kts | 6° |
| 2026-05-07 05:25 | 9.86156 | 122.88726 | 3697 ft | 118 kts | 8° |
| 2026-05-07 05:26 | 9.86969 | 122.88759 | 3701 ft | 117 kts | 7° |
| 2026-05-07 05:26 | 9.87790 | 122.88793 | 3693 ft | 117 kts | 8° |
| 2026-05-07 05:26 | 9.88592 | 122.88801 | 3701 ft | 114 kts | 7° |
| 2026-05-07 05:26 | 9.89398 | 122.88831 | 3702 ft | 117 kts | 10° |
| 2026-05-07 05:27 | 9.90211 | 122.88885 | 3706 ft | 117 kts | 9° |
| 2026-05-07 05:27 | 9.91028 | 122.88957 | 3694 ft | 118 kts | 12° |
| 2026-05-07 05:27 | 9.91847 | 122.89009 | 3702 ft | 119 kts | 11° |
| 2026-05-07 05:27 | 9.92679 | 122.89043 | 3698 ft | 120 kts | 12° |
| 2026-05-07 05:28 | 9.93508 | 122.89091 | 3700 ft | 119 kts | 17° |
| 2026-05-07 05:28 | 9.94342 | 122.89193 | 3658 ft | 121 kts | 16° |
| 2026-05-07 05:28 | 9.95194 | 122.89291 | 3621 ft | 127 kts | 13° |
| 2026-05-07 05:28 | 9.96077 | 122.89385 | 3570 ft | 127 kts | 12° |
| 2026-05-07 05:29 | 9.96967 | 122.89473 | 3520 ft | 129 kts | 12° |
| 2026-05-07 05:29 | 9.97856 | 122.89561 | 3493 ft | 126 kts | 14° |
| 2026-05-07 05:29 | 9.98712 | 122.89643 | 3499 ft | 122 kts | 12° |
| 2026-05-07 05:29 | 9.99549 | 122.89722 | 3499 ft | 120 kts | 13° |
| 2026-05-07 05:30 | 10.00379 | 122.89805 | 3499 ft | 120 kts | 12° |
| 2026-05-07 05:30 | 10.01211 | 122.89887 | 3497 ft | 119 kts | 13° |
| 2026-05-07 05:30 | 10.02026 | 122.89969 | 3496 ft | 117 kts | 12° |
| 2026-05-07 05:30 | 10.02838 | 122.90049 | 3498 ft | 118 kts | 10° |
| 2026-05-07 05:31 | 10.03659 | 122.90129 | 3498 ft | 118 kts | 13° |
| 2026-05-07 05:31 | 10.04470 | 122.90211 | 3492 ft | 119 kts | 12° |
| 2026-05-07 05:31 | 10.05285 | 122.90289 | 3494 ft | 116 kts | 14° |
| 2026-05-07 05:31 | 10.06079 | 122.90369 | 3495 ft | 114 kts | 13° |
| 2026-05-07 05:32 | 10.06879 | 122.90448 | 3502 ft | 116 kts | 13° |
| 2026-05-07 05:32 | 10.07681 | 122.90528 | 3498 ft | 117 kts | 12° |
| 2026-05-07 05:32 | 10.08484 | 122.90607 | 3499 ft | 116 kts | 12° |
| 2026-05-07 05:32 | 10.09285 | 122.90685 | 3498 ft | 115 kts | 13° |
| 2026-05-07 05:33 | 10.10088 | 122.90764 | 3504 ft | 117 kts | 12° |
| 2026-05-07 05:33 | 10.10900 | 122.90844 | 3506 ft | 118 kts | 14° |
| 2026-05-07 05:33 | 10.11725 | 122.90929 | 3502 ft | 120 kts | 12° |
| 2026-05-07 05:33 | 10.12568 | 122.91013 | 3502 ft | 122 kts | 13° |
| 2026-05-07 05:34 | 10.13407 | 122.91098 | 3497 ft | 121 kts | 12° |
| 2026-05-07 05:34 | 10.14251 | 122.91180 | 3497 ft | 122 kts | 13° |
| 2026-05-07 05:34 | 10.15085 | 122.91261 | 3495 ft | 120 kts | 14° |
| 2026-05-07 05:34 | 10.15920 | 122.91344 | 3498 ft | 122 kts | 12° |
| 2026-05-07 05:35 | 10.16767 | 122.91428 | 3504 ft | 123 kts | 12° |
| 2026-05-07 05:35 | 10.17617 | 122.91512 | 3500 ft | 123 kts | 12° |
| 2026-05-07 05:35 | 10.18470 | 122.91596 | 3501 ft | 123 kts | 13° |
| 2026-05-07 05:35 | 10.19319 | 122.91680 | 3500 ft | 122 kts | 12° |
| 2026-05-07 05:36 | 10.20166 | 122.91764 | 3501 ft | 122 kts | 11° |
| 2026-05-07 05:36 | 10.21018 | 122.91848 | 3498 ft | 123 kts | 13° |
| 2026-05-07 05:36 | 10.21862 | 122.91932 | 3497 ft | 120 kts | 13° |
| 2026-05-07 05:36 | 10.22678 | 122.92011 | 3497 ft | 118 kts | 14° |
| 2026-05-07 05:37 | 10.23501 | 122.92093 | 3495 ft | 119 kts | 12° |
| 2026-05-07 05:37 | 10.24326 | 122.92173 | 3499 ft | 119 kts | 13° |
| 2026-05-07 05:37 | 10.25162 | 122.92257 | 3500 ft | 123 kts | 12° |
| 2026-05-07 05:37 | 10.26019 | 122.92344 | 3505 ft | 125 kts | 11° |
| 2026-05-07 05:38 | 10.26890 | 122.92432 | 3503 ft | 126 kts | 12° |
| 2026-05-07 05:38 | 10.27769 | 122.92518 | 3501 ft | 127 kts | 14° |
| 2026-05-07 05:38 | 10.28644 | 122.92606 | 3495 ft | 125 kts | 14° |
| 2026-05-07 05:38 | 10.29500 | 122.92690 | 3496 ft | 123 kts | 13° |
| 2026-05-07 05:39 | 10.30354 | 122.92775 | 3501 ft | 124 kts | 14° |
| 2026-05-07 05:39 | 10.31224 | 122.92862 | 3498 ft | 126 kts | 12° |
| 2026-05-07 05:39 | 10.32095 | 122.92947 | 3498 ft | 125 kts | 12° |
| 2026-05-07 05:39 | 10.32961 | 122.93033 | 3502 ft | 125 kts | 12° |
| 2026-05-07 05:40 | 10.33830 | 122.93118 | 3499 ft | 125 kts | 13° |
| 2026-05-07 05:40 | 10.34693 | 122.93203 | 3501 ft | 125 kts | 14° |
| 2026-05-07 05:40 | 10.35268 | 122.93261 | 3494 ft | 125 kts | 13° |
| 2026-05-07 05:40 | 10.36420 | 122.93375 | 3498 ft | 124 kts | 13° |
| 2026-05-07 05:41 | 10.36991 | 122.93432 | 3500 ft | 125 kts | 12° |
| 2026-05-07 05:41 | 10.37855 | 122.93519 | 3495 ft | 124 kts | 11° |
| 2026-05-07 05:41 | 10.38710 | 122.93602 | 3499 ft | 124 kts | 13° |
| 2026-05-07 05:41 | 10.39559 | 122.93746 | 3499 ft | 123 kts | 25° |
| 2026-05-07 05:42 | 10.40359 | 122.94030 | 3500 ft | 122 kts | 26° |
| 2026-05-07 05:42 | 10.41163 | 122.94320 | 3497 ft | 123 kts | 25° |
| 2026-05-07 05:42 | 10.41964 | 122.94608 | 3505 ft | 122 kts | 25° |
| 2026-05-07 05:42 | 10.42763 | 122.94895 | 3506 ft | 122 kts | 25° |
| 2026-05-07 05:43 | 10.43558 | 122.95181 | 3506 ft | 121 kts | 26° |
| 2026-05-07 05:43 | 10.44343 | 122.95463 | 3503 ft | 118 kts | 26° |
| 2026-05-07 05:43 | 10.45113 | 122.95740 | 3505 ft | 117 kts | 26° |
| 2026-05-07 05:43 | 10.45876 | 122.96013 | 3499 ft | 116 kts | 26° |
| 2026-05-07 05:44 | 10.46642 | 122.96288 | 3505 ft | 117 kts | 25° |
| 2026-05-07 05:44 | 10.47425 | 122.96571 | 3505 ft | 121 kts | 23° |
| 2026-05-07 05:44 | 10.48217 | 122.96854 | 3499 ft | 120 kts | 25° |
| 2026-05-07 05:44 | 10.49002 | 122.97136 | 3507 ft | 121 kts | 23° |
| 2026-05-07 05:45 | 10.49483 | 122.97309 | 3506 ft | 122 kts | 26° |
| 2026-05-07 05:45 | 10.50260 | 122.97588 | 3504 ft | 121 kts | 26° |
| 2026-05-07 05:45 | 10.51059 | 122.97878 | 3504 ft | 123 kts | 25° |
| 2026-05-07 05:45 | 10.51858 | 122.98166 | 3506 ft | 122 kts | 24° |
| 2026-05-07 05:46 | 10.52661 | 122.98453 | 3507 ft | 124 kts | 23° |
| 2026-05-07 05:46 | 10.53474 | 122.98745 | 3512 ft | 124 kts | 25° |
| 2026-05-07 05:46 | 10.54300 | 122.99045 | 3508 ft | 127 kts | 26° |
| 2026-05-07 05:46 | 10.55122 | 122.99348 | 3507 ft | 123 kts | 26° |
| 2026-05-07 05:47 | 10.55934 | 122.99679 | 3422 ft | 129 kts | 26° |
| 2026-05-07 05:47 | 10.56749 | 123.00060 | 3323 ft | 129 kts | 29° |
| 2026-05-07 05:47 | 10.57553 | 123.00456 | 3228 ft | 129 kts | 28° |
| 2026-05-07 05:47 | 10.58357 | 123.00851 | 3121 ft | 126 kts | 29° |
| 2026-05-07 05:48 | 10.59148 | 123.01228 | 3011 ft | 126 kts | 29° |
| 2026-05-07 05:48 | 10.59943 | 123.01562 | 2867 ft | 124 kts | 25° |
| 2026-05-07 05:48 | 10.60748 | 123.01850 | 2768 ft | 122 kts | 19° |
| 2026-05-07 05:48 | 10.61620 | 123.01905 | 2605 ft | 130 kts | 358° |
| 2026-05-07 05:49 | 10.62521 | 123.01800 | 2464 ft | 130 kts | 354° |
| 2026-05-07 05:49 | 10.63416 | 123.01598 | 2322 ft | 133 kts | 347° |
| 2026-05-07 05:49 | 10.64288 | 123.01332 | 2220 ft | 126 kts | 344° |
| 2026-05-07 05:49 | 10.65128 | 123.01082 | 2106 ft | 125 kts | 348° |
| 2026-05-07 05:50 | 10.65942 | 123.00782 | 1940 ft | 123 kts | 345° |
| 2026-05-07 05:50 | 10.66725 | 123.00465 | 1792 ft | 119 kts | 345° |
| 2026-05-07 05:50 | 10.67472 | 123.00156 | 1686 ft | 114 kts | 343° |
| 2026-05-07 05:50 | 10.68219 | 122.99939 | 1639 ft | 110 kts | 351° |
| 2026-05-07 05:51 | 10.68954 | 122.99762 | 1523 ft | 108 kts | 352° |
| 2026-05-07 05:51 | 10.69688 | 122.99630 | 1440 ft | 108 kts | 358° |
| 2026-05-07 05:51 | 10.70450 | 122.99608 | 1400 ft | 111 kts | 2° |
| 2026-05-07 05:51 | 10.71219 | 122.99602 | 1329 ft | 110 kts | 5° |
| 2026-05-07 05:52 | 10.71994 | 122.99609 | 1157 ft | 109 kts | 6° |
| 2026-05-07 05:52 | 10.72734 | 122.99644 | 1049 ft | 107 kts | 7° |
| 2026-05-07 05:52 | 10.73474 | 122.99755 | 907 ft | 105 kts | 12° |
| 2026-05-07 05:52 | 10.74161 | 122.99913 | 873 ft | 99 kts | 20° |
| 2026-05-07 05:53 | 10.74794 | 123.00203 | 745 ft | 100 kts | 34° |
| 2026-05-07 05:53 | 10.75380 | 123.00568 | 570 ft | 102 kts | 32° |
| 2026-05-07 05:53 | 10.75977 | 123.00899 | 403 ft | 86 kts | 32° |
| 2026-05-07 05:53 | 10.76445 | 123.01187 | 240 ft | 68 kts | 31° |
| 2026-05-07 05:54 | 10.76814 | 123.01404 | 122 ft | 57 kts | 33° |
| 2026-05-07 05:54 | 10.77119 | 123.01590 | 89 ft | 45 kts | 29° |
| 2026-05-07 05:54 | 10.77268 | 123.01652 | 87 ft | 11 kts | 340° |
| 2026-05-07 05:54 | 10.77310 | 123.01606 | 88 ft | 8 kts | 297° |
| 2026-05-07 05:55 | 10.77343 | 123.01552 | 87 ft | 10 kts | 300° |
| 2026-05-07 05:55 | 10.77366 | 123.01487 | 86 ft | 10 kts | 221° |
| 2026-05-07 05:55 | 10.77306 | 123.01452 | 80 ft | 10 kts | 207° |
| 2026-05-07 05:55 | 10.77250 | 123.01414 | 81 ft | 9 kts | 250° |
| 2026-05-07 05:56 | 10.77286 | 123.01386 | 81 ft | 6 kts | 347° |
| 2026-05-07 05:56 | 10.77314 | 123.01393 | 80 ft | 0 kts | 32° |